createdAt,value
2018-09-11T00:00:36.449Z,19.31
2018-09-11T00:03:07.471Z,19.16
2018-09-11T00:05:38.473Z,19.03
2018-09-11T00:08:09.545Z,19.17
2018-09-11T00:10:40.493Z,19.17
2018-09-11T00:13:11.453Z,19.19
2018-09-11T00:15:42.448Z,19.13
2018-09-11T00:18:13.449Z,19.17
2018-09-11T00:20:44.448Z,19.04
2018-09-11T00:23:15.445Z,19.09
2018-09-11T00:25:46.448Z,19.02
2018-09-11T00:28:17.462Z,19.01
2018-09-11T00:30:49.248Z,18.96
2018-09-11T00:33:19.374Z,18.90
2018-09-11T00:35:50.417Z,18.81
2018-09-11T00:38:21.477Z,18.80
2018-09-11T00:40:52.449Z,18.80
2018-09-11T00:43:23.501Z,18.69
2018-09-11T00:45:54.461Z,18.63
2018-09-11T00:48:25.441Z,18.58
2018-09-11T00:50:56.501Z,18.66
2018-09-11T00:53:27.478Z,18.56
2018-09-11T00:55:58.461Z,18.54
2018-09-11T00:58:29.464Z,18.42
2018-09-11T01:01:00.434Z,18.34
2018-09-11T01:03:31.465Z,18.34
2018-09-11T01:06:02.451Z,18.39
2018-09-11T01:08:33.469Z,18.29
2018-09-11T01:11:04.488Z,18.36
2018-09-11T01:13:35.467Z,18.39
2018-09-11T01:16:08.373Z,18.39
2018-09-11T01:18:39.443Z,18.38
2018-09-11T01:21:10.432Z,18.33
2018-09-11T01:23:41.452Z,18.34
2018-09-11T01:26:12.445Z,18.25
2018-09-11T01:28:43.467Z,18.20
2018-09-11T01:31:14.465Z,18.03
2018-09-11T01:33:45.458Z,18.01
2018-09-11T01:36:16.445Z,18.11
2018-09-11T01:38:47.545Z,18.03
2018-09-11T01:41:18.471Z,17.93
2018-09-11T01:43:49.466Z,17.97
2018-09-11T01:46:20.437Z,17.98
2018-09-11T01:48:51.481Z,17.95
2018-09-11T01:51:22.450Z,17.95
2018-09-11T01:53:53.602Z,17.98
2018-09-11T01:56:24.466Z,17.83
2018-09-11T01:58:55.437Z,17.84
2018-09-11T02:01:26.549Z,17.82
2018-09-11T02:03:57.489Z,17.87
2018-09-11T02:06:28.447Z,17.83
2018-09-11T02:08:59.468Z,17.80
2018-09-11T02:11:30.474Z,17.84
2018-09-11T02:14:01.473Z,17.86
2018-09-11T02:16:32.465Z,17.75
2018-09-11T02:19:03.562Z,17.75
2018-09-11T02:21:34.468Z,17.71
2018-09-11T02:24:05.478Z,17.75
2018-09-11T02:26:36.473Z,17.71
2018-09-11T02:29:07.562Z,17.75
2018-09-11T02:31:38.523Z,17.70
2018-09-11T02:34:09.585Z,17.68
2018-09-11T02:36:40.481Z,17.56
2018-09-11T02:39:13.007Z,17.46
2018-09-11T02:41:44.205Z,17.52
2018-09-11T02:44:15.366Z,17.57
2018-09-11T02:46:46.346Z,17.55
2018-09-11T02:49:17.368Z,17.61
2018-09-11T02:51:48.401Z,17.42
2018-09-11T02:54:19.446Z,17.04
2018-09-11T02:56:50.430Z,17.04
2018-09-11T02:59:21.447Z,16.67
2018-09-11T03:01:52.425Z,16.62
2018-09-11T03:04:23.449Z,16.69
2018-09-11T03:06:54.450Z,16.80
2018-09-11T03:09:25.494Z,16.74
2018-09-11T03:11:56.485Z,16.73
2018-09-11T03:14:27.497Z,16.51
2018-09-11T03:16:58.491Z,16.39
2018-09-11T03:19:29.505Z,16.39
2018-09-11T03:22:00.465Z,16.50
2018-09-11T03:24:31.482Z,16.46
2018-09-11T03:27:02.456Z,16.40
2018-09-11T03:29:33.431Z,16.45
2018-09-11T03:32:04.449Z,16.38
2018-09-11T03:34:35.469Z,16.39
2018-09-11T03:37:06.601Z,16.35
2018-09-11T03:39:37.477Z,16.08
2018-09-11T03:42:08.465Z,16.27
2018-09-11T03:44:39.441Z,16.30
2018-09-11T03:47:10.449Z,16.20
2018-09-11T03:49:41.435Z,16.24
2018-09-11T03:52:12.465Z,15.86
2018-09-11T03:54:43.465Z,16.02
2018-09-11T03:57:14.456Z,16.11
2018-09-11T03:59:46.469Z,15.92
2018-09-11T04:02:17.469Z,15.90
2018-09-11T04:04:48.461Z,15.78
2018-09-11T04:07:19.453Z,15.76
2018-09-11T04:09:50.440Z,16.00
2018-09-11T04:12:21.385Z,15.70
2018-09-11T04:14:52.421Z,15.83
2018-09-11T04:17:58.447Z,15.67
2018-09-11T04:20:29.520Z,15.84
2018-09-11T04:23:00.457Z,15.76
2018-09-11T04:25:31.551Z,15.71
2018-09-11T04:28:02.468Z,15.73
2018-09-11T04:33:03.548Z,15.71
2018-09-11T04:35:34.486Z,15.76
2018-09-11T04:38:05.630Z,15.70
2018-09-11T04:43:20.636Z,15.73
2018-09-11T04:45:51.602Z,15.67
2018-09-11T04:48:22.489Z,15.62
2018-09-11T04:50:53.502Z,15.73
2018-09-11T04:56:10.547Z,15.67
2018-09-11T04:58:41.592Z,15.77
2018-09-11T05:01:13.068Z,15.62
2018-09-11T05:03:44.441Z,15.73
2018-09-11T05:06:15.522Z,15.68
2018-09-11T05:11:47.640Z,15.90
2018-09-11T05:14:19.372Z,15.84
2018-09-11T05:16:50.458Z,16.26
2018-09-11T05:19:21.556Z,15.91
2018-09-11T05:21:54.017Z,16.01
2018-09-11T05:24:25.631Z,16.09
2018-09-11T05:26:56.558Z,16.06
2018-09-11T05:29:28.026Z,16.27
2018-09-11T05:31:59.851Z,16.02
2018-09-11T05:34:30.659Z,16.27
2018-09-11T05:37:02.786Z,16.32
2018-09-11T05:39:34.410Z,15.94
2018-09-11T05:42:05.621Z,15.96
2018-09-11T05:44:36.549Z,15.91
2018-09-11T05:47:07.638Z,16.04
2018-09-11T05:49:38.637Z,16.11
2018-09-11T05:52:09.637Z,16.16
2018-09-11T05:54:40.702Z,16.13
2018-09-11T05:57:11.909Z,16.31
2018-09-11T05:59:43.031Z,16.27
2018-09-11T06:02:14.349Z,16.36
2018-09-11T06:04:45.357Z,16.36
2018-09-11T06:07:16.493Z,16.38
2018-09-11T06:09:47.530Z,16.47
2018-09-11T06:12:18.518Z,16.47
2018-09-11T06:14:49.490Z,16.55
2018-09-11T06:17:21.188Z,16.48
2018-09-11T06:19:52.400Z,16.68
2018-09-11T06:22:24.013Z,16.87
2018-09-11T06:24:55.301Z,16.88
2018-09-11T06:27:28.217Z,16.90
2018-09-11T06:30:00.325Z,16.96
2018-09-11T06:32:31.441Z,16.98
2018-09-11T06:35:02.501Z,17.09
2018-09-11T06:37:34.223Z,16.97
2018-09-11T06:40:06.364Z,17.05
2018-09-11T06:42:37.833Z,17.36
2018-09-11T06:45:08.566Z,17.27
2018-09-11T06:47:39.547Z,17.31
2018-09-11T06:50:14.300Z,17.46
2018-09-11T06:52:45.466Z,17.43
2018-09-11T06:55:17.008Z,17.34
2018-09-11T06:57:48.345Z,17.64
2018-09-11T07:00:20.068Z,17.48
2018-09-11T07:02:51.430Z,17.66
2018-09-11T07:05:22.491Z,17.83
2018-09-11T07:07:53.533Z,17.83
2018-09-11T07:10:24.551Z,17.98
2018-09-11T07:12:55.624Z,18.09
2018-09-11T07:15:26.526Z,18.12
2018-09-11T07:17:57.488Z,18.28
2018-09-11T07:20:28.593Z,18.17
2018-09-11T07:22:59.490Z,18.30
2018-09-11T07:25:30.522Z,18.34
2018-09-11T07:28:01.567Z,18.38
2018-09-11T07:30:32.588Z,18.43
2018-09-11T07:33:03.482Z,18.65
2018-09-11T07:35:34.552Z,18.98
2018-09-11T07:38:05.500Z,19.02
2018-09-11T07:40:36.447Z,19.17
2018-09-11T07:43:08.865Z,19.23
2018-09-11T07:45:39.754Z,19.53
2018-09-11T07:48:11.898Z,19.37
2018-09-11T07:50:42.910Z,19.59
2018-09-11T07:53:13.806Z,19.72
2018-09-11T07:55:44.605Z,19.88
2018-09-11T07:58:15.528Z,20.02
2018-09-11T08:00:46.526Z,20.34
2018-09-11T08:03:17.462Z,20.44
2018-09-11T08:05:48.457Z,20.66
2018-09-11T08:08:19.465Z,20.75
2018-09-11T08:13:35.348Z,20.80
2018-09-11T08:16:06.506Z,21.02
2018-09-11T08:18:37.504Z,20.81
2018-09-11T08:21:09.372Z,21.00
2018-09-11T08:23:40.481Z,21.53
2018-09-11T08:26:11.540Z,21.62
2018-09-11T08:28:42.532Z,22.11
2018-09-11T08:31:13.533Z,22.56
2018-09-11T08:33:44.530Z,23.05
2018-09-11T08:36:15.493Z,22.94
2018-09-11T08:38:46.531Z,23.35
2018-09-11T08:41:17.515Z,23.68
2018-09-11T08:43:48.523Z,24.07
2018-09-11T08:46:19.509Z,24.14
2018-09-11T08:48:50.534Z,24.82
2018-09-11T08:51:21.699Z,24.71
2018-09-11T08:53:52.567Z,25.03
2018-09-11T08:56:23.517Z,25.33
2018-09-11T08:58:54.598Z,25.59
2018-09-11T09:01:25.694Z,26.06
2018-09-11T09:03:57.021Z,26.53
2018-09-11T09:06:28.341Z,25.60
2018-09-11T09:08:59.348Z,26.15
2018-09-11T09:11:30.439Z,25.77
2018-09-11T09:14:01.514Z,25.72
2018-09-11T09:16:32.530Z,26.01
2018-09-11T09:19:03.509Z,26.24
2018-09-11T09:21:34.584Z,26.02
2018-09-11T09:24:05.537Z,25.50
2018-09-11T09:26:36.746Z,25.73
2018-09-11T09:29:07.555Z,25.65
2018-09-11T09:31:39.382Z,25.53
2018-09-11T09:34:10.537Z,25.73
2018-09-11T09:36:41.498Z,24.98
2018-09-11T09:39:12.540Z,25.38
2018-09-11T09:41:43.518Z,25.16
2018-09-11T09:44:14.554Z,25.22
2018-09-11T09:46:45.519Z,24.88
2018-09-11T09:49:16.518Z,24.55
2018-09-11T09:51:47.743Z,24.71
2018-09-11T09:54:18.574Z,25.30
2018-09-11T09:56:49.589Z,24.61
2018-09-11T09:59:20.500Z,24.48
2018-09-11T10:01:56.697Z,24.82
2018-09-11T10:04:28.617Z,24.80
2018-09-11T10:06:59.546Z,24.66
2018-09-11T10:09:30.533Z,24.73
2018-09-11T10:12:01.535Z,25.12
2018-09-11T10:14:32.567Z,24.44
2018-09-11T10:17:03.524Z,24.28
2018-09-11T10:19:35.306Z,24.51
2018-09-11T10:22:06.423Z,24.68
2018-09-11T10:24:37.663Z,24.88
2018-09-11T10:27:09.542Z,24.86
2018-09-11T10:29:40.519Z,25.02
2018-09-11T10:32:11.547Z,25.47
2018-09-11T10:34:42.492Z,25.08
2018-09-11T10:37:13.578Z,25.40
2018-09-11T10:39:44.516Z,25.24
2018-09-11T10:42:15.561Z,25.26
2018-09-11T10:44:46.514Z,25.55
2018-09-11T10:50:02.581Z,25.57
2018-09-11T10:52:33.569Z,25.59
2018-09-11T10:55:04.513Z,25.89
2018-09-11T10:57:36.028Z,26.12
2018-09-11T11:00:07.572Z,26.55
2018-09-11T11:02:38.509Z,26.84
2018-09-11T11:05:09.781Z,26.86
2018-09-11T11:07:40.579Z,27.01
2018-09-11T11:10:11.830Z,27.30
2018-09-11T11:12:42.791Z,27.61
2018-09-11T11:15:13.592Z,27.93
2018-09-11T11:17:44.509Z,27.67
2018-09-11T11:20:15.406Z,28.49
2018-09-11T11:22:46.486Z,28.53
2018-09-11T11:25:17.452Z,28.83
2018-09-11T11:27:48.725Z,29.79
2018-09-11T11:30:19.555Z,29.04
2018-09-11T11:32:50.571Z,29.68
2018-09-11T11:35:21.486Z,29.43
2018-09-11T11:37:53.516Z,30.13
2018-09-11T11:40:24.485Z,30.33
2018-09-11T11:42:55.604Z,30.44
2018-09-11T11:45:26.494Z,30.34
2018-09-11T11:47:58.290Z,30.61
2018-09-11T11:50:29.534Z,30.61
2018-09-11T11:53:01.358Z,30.78
2018-09-11T11:55:32.408Z,31.19
2018-09-11T11:58:03.474Z,30.93
2018-09-11T12:00:34.604Z,31.84
2018-09-11T12:03:05.647Z,30.53
2018-09-11T12:05:36.730Z,30.58
2018-09-11T12:08:08.035Z,30.82
2018-09-11T12:10:39.552Z,30.55
2018-09-11T12:13:11.344Z,31.78
2018-09-11T12:15:45.305Z,30.67
2018-09-11T12:18:16.353Z,31.63
2018-09-11T12:20:47.397Z,31.13
2018-09-11T12:23:18.537Z,31.59
2018-09-11T12:25:49.496Z,31.34
2018-09-11T12:28:20.532Z,31.63
2018-09-11T12:30:51.913Z,31.95
2018-09-11T12:33:22.770Z,31.25
2018-09-11T12:35:54.353Z,31.80
2018-09-11T12:38:25.781Z,32.19
2018-09-11T12:40:56.588Z,31.66
2018-09-11T12:43:27.558Z,31.51
2018-09-11T12:45:59.070Z,31.19
2018-09-11T12:48:30.486Z,32.12
2018-09-11T12:51:01.537Z,31.75
2018-09-11T12:53:33.503Z,31.46
2018-09-11T12:56:04.501Z,31.35
2018-09-11T12:58:35.550Z,32.26
2018-09-11T13:01:06.477Z,32.03
2018-09-11T13:03:37.534Z,31.55
2018-09-11T13:06:08.673Z,32.16
2018-09-11T13:08:39.554Z,32.43
2018-09-11T13:11:10.582Z,31.63
2018-09-11T13:13:41.598Z,31.69
2018-09-11T13:16:14.230Z,31.68
2018-09-11T13:18:45.486Z,32.40
2018-09-11T13:21:16.525Z,31.82
2018-09-11T13:23:47.489Z,31.38
2018-09-11T13:26:18.537Z,31.21
2018-09-11T13:28:49.531Z,32.20
2018-09-11T13:31:20.517Z,32.42
2018-09-11T13:33:52.454Z,32.14
2018-09-11T13:36:23.508Z,31.97
2018-09-11T13:38:54.571Z,31.92
2018-09-11T13:41:25.790Z,31.62
2018-09-11T13:43:57.277Z,32.01
2018-09-11T13:46:27.399Z,32.43
2018-09-11T13:48:58.474Z,32.52
2018-09-11T13:51:29.481Z,31.33
2018-09-11T13:54:00.584Z,32.53
2018-09-11T13:56:31.510Z,32.99
2018-09-11T13:59:02.556Z,32.15
2018-09-11T14:01:33.541Z,31.56
2018-09-11T14:04:05.024Z,31.92
2018-09-11T14:06:36.277Z,31.82
2018-09-11T14:09:10.935Z,31.88
2018-09-11T14:11:42.017Z,32.03
2018-09-11T14:14:13.310Z,32.67
2018-09-11T14:16:45.290Z,31.71
2018-09-11T14:19:16.423Z,32.05
2018-09-11T14:21:47.432Z,31.16
2018-09-11T14:24:18.538Z,30.92
2018-09-11T14:26:49.559Z,31.98
2018-09-11T14:29:20.561Z,31.26
2018-09-11T14:31:51.493Z,30.67
2018-09-11T14:34:22.553Z,30.79
2018-09-11T14:36:53.493Z,30.82
2018-09-11T14:39:24.617Z,31.35
2018-09-11T14:41:55.542Z,30.97
2018-09-11T14:44:27.283Z,31.14
2018-09-11T14:46:58.318Z,30.60
2018-09-11T14:49:29.438Z,30.05
2018-09-11T14:52:00.576Z,30.63
2018-09-11T14:54:31.522Z,30.33
2018-09-11T14:57:02.500Z,29.90
2018-09-11T14:59:33.606Z,29.83
2018-09-11T15:02:04.627Z,29.28
2018-09-11T15:04:35.520Z,29.45
2018-09-11T15:07:07.397Z,29.74
2018-09-11T15:09:38.527Z,29.28
2018-09-11T15:12:09.642Z,29.37
2018-09-11T15:14:40.502Z,29.20
2018-09-11T15:17:11.525Z,29.01
2018-09-11T15:19:42.585Z,29.11
2018-09-11T15:22:13.615Z,29.24
2018-09-11T15:24:44.570Z,28.90
2018-09-11T15:27:15.579Z,29.02
2018-09-11T15:29:46.509Z,28.66
2018-09-11T15:32:17.652Z,28.63
2018-09-11T15:34:48.628Z,28.88
2018-09-11T15:37:19.512Z,28.93
2018-09-11T15:39:50.542Z,28.67
2018-09-11T15:42:22.289Z,28.67
2018-09-11T15:44:53.453Z,28.41
2018-09-11T15:47:24.514Z,28.59
2018-09-11T15:49:55.565Z,28.64
2018-09-11T15:52:26.573Z,28.44
2018-09-11T15:54:57.579Z,28.56
2018-09-11T15:57:28.497Z,28.75
2018-09-11T15:59:59.457Z,28.58
2018-09-11T16:02:30.452Z,28.41
2018-09-11T16:05:01.841Z,28.32
2018-09-11T16:07:32.683Z,28.20
2018-09-11T16:10:03.505Z,28.12
2018-09-11T16:12:34.635Z,28.24
2018-09-11T16:15:05.703Z,28.25
2018-09-11T16:17:36.468Z,28.09
2018-09-11T16:20:08.416Z,28.04
2018-09-11T16:22:39.505Z,27.96
2018-09-11T16:25:10.538Z,27.92
2018-09-11T16:27:41.545Z,27.91
2018-09-11T16:30:12.725Z,27.91
2018-09-11T16:32:43.560Z,27.93
2018-09-11T16:35:14.590Z,27.75
2018-09-11T16:37:46.796Z,27.76
2018-09-11T16:40:18.178Z,27.57
2018-09-11T16:42:49.493Z,27.44
2018-09-11T16:45:20.505Z,27.50
2018-09-11T16:47:51.514Z,27.50
2018-09-11T16:50:22.487Z,27.41
2018-09-11T16:52:53.487Z,27.39
2018-09-11T16:55:24.433Z,27.31
2018-09-11T16:57:55.574Z,27.21
2018-09-11T17:00:26.510Z,27.23
2018-09-11T17:02:57.473Z,27.07
2018-09-11T17:05:29.419Z,27.15
2018-09-11T17:08:01.543Z,26.99
2018-09-11T17:10:34.190Z,27.03
2018-09-11T17:13:04.950Z,26.95
2018-09-11T17:15:39.001Z,26.90
2018-09-11T17:18:10.655Z,26.90
2018-09-11T17:20:44.245Z,26.78
2018-09-11T17:23:20.764Z,26.78
2018-09-11T17:25:52.308Z,26.71
2018-09-11T17:28:25.226Z,26.66
2018-09-11T17:31:01.657Z,26.60
2018-09-11T17:33:37.360Z,26.53
2018-09-11T17:36:10.609Z,26.58
2018-09-11T17:38:43.431Z,26.45
2018-09-11T17:41:14.549Z,26.44
2018-09-11T17:43:50.972Z,26.39
2018-09-11T17:46:22.033Z,26.35
2018-09-11T17:48:54.833Z,26.29
2018-09-11T17:51:26.584Z,26.29
2018-09-11T17:53:57.485Z,26.20
2018-09-11T17:56:28.463Z,26.16
2018-09-11T17:58:59.514Z,26.18
2018-09-11T18:01:30.531Z,26.06
2018-09-11T18:04:01.502Z,26.03
2018-09-11T18:06:32.550Z,25.96
2018-09-11T18:09:04.350Z,25.94
2018-09-11T18:11:35.398Z,25.87
2018-09-11T18:16:51.631Z,25.85
2018-09-11T18:19:22.507Z,25.73
2018-09-11T18:21:53.510Z,25.73
2018-09-11T18:24:24.473Z,25.72
2018-09-11T18:26:55.514Z,25.69
2018-09-11T18:29:26.799Z,25.66
2018-09-11T18:31:57.617Z,25.63
2018-09-11T18:34:28.503Z,25.60
2018-09-11T18:36:59.492Z,25.60
2018-09-11T18:39:30.485Z,25.46
2018-09-11T18:42:01.547Z,25.51
2018-09-11T18:44:32.520Z,25.42
2018-09-11T18:47:03.765Z,25.42
2018-09-11T18:49:36.383Z,25.40
2018-09-11T18:52:07.708Z,25.35
2018-09-11T18:54:38.732Z,25.31
2018-09-11T18:57:14.218Z,25.25
2018-09-11T18:59:45.582Z,25.26
2018-09-11T19:02:38.794Z,25.24
2018-09-11T19:05:10.246Z,25.16
2018-09-11T19:07:44.751Z,25.15
2018-09-11T19:10:16.835Z,25.06
2018-09-11T19:12:50.587Z,25.07
2018-09-11T19:15:21.743Z,24.97
2018-09-11T19:17:52.590Z,25.01
2018-09-11T19:20:25.338Z,24.94
2018-09-11T19:22:56.379Z,24.90
2018-09-11T19:25:27.637Z,24.80
2018-09-11T19:27:58.501Z,24.72
2018-09-11T19:30:29.489Z,24.76
2018-09-11T19:33:00.505Z,24.63
2018-09-11T19:35:31.485Z,24.58
2018-09-11T19:38:02.539Z,24.50
2018-09-11T19:40:33.640Z,24.49
2018-09-11T19:43:07.297Z,24.41
2018-09-11T19:45:38.366Z,24.36
2018-09-11T19:48:12.647Z,24.32
2018-09-11T19:50:43.590Z,24.22
2018-09-11T19:53:14.599Z,24.18
2018-09-11T19:55:45.778Z,24.09
2018-09-11T19:58:16.864Z,24.07
2018-09-11T20:00:47.700Z,24.01
2018-09-11T20:03:18.624Z,23.87
2018-09-11T20:05:49.586Z,23.92
2018-09-11T20:08:24.048Z,23.88
2018-09-11T20:10:55.345Z,23.80
2018-09-11T20:13:26.353Z,23.75
2018-09-11T20:15:57.361Z,23.70
2018-09-11T20:18:28.439Z,23.64
2018-09-11T20:20:59.574Z,23.66
2018-09-11T20:23:30.505Z,23.65
2018-09-11T20:26:01.571Z,23.55
2018-09-11T20:28:32.490Z,23.33
2018-09-11T20:31:03.484Z,23.22
2018-09-11T20:33:34.493Z,23.13
2018-09-11T20:36:10.497Z,23.01
2018-09-11T20:38:41.680Z,23.01
2018-09-11T20:41:16.436Z,22.94
2018-09-11T20:43:58.783Z,23.01
2018-09-11T20:46:37.627Z,23.10
2018-09-11T20:49:11.769Z,23.01
2018-09-11T20:51:50.048Z,22.94
2018-09-11T20:54:36.610Z,22.87
2018-09-11T20:57:08.510Z,22.85
2018-09-11T20:59:48.197Z,22.73
2018-09-11T21:02:27.329Z,22.44
2018-09-11T21:05:10.598Z,22.28
2018-09-11T21:07:48.553Z,22.28
2018-09-11T21:13:50.243Z,22.06
2018-09-11T21:19:23.364Z,21.86
2018-09-11T21:22:13.865Z,21.88
2018-09-11T21:28:33.632Z,21.88
2018-09-11T21:46:43.505Z,21.55
2018-09-11T21:49:14.532Z,21.56
2018-09-11T21:51:45.505Z,21.44
2018-09-11T21:54:16.467Z,21.42
2018-09-11T21:56:47.465Z,21.34
2018-09-11T21:59:18.670Z,21.32
2018-09-11T22:01:53.312Z,21.34
2018-09-11T22:04:25.004Z,21.27
2018-09-11T22:06:56.266Z,21.29
2018-09-11T22:09:26.441Z,21.29
2018-09-11T22:11:57.556Z,21.18
2018-09-11T22:14:28.478Z,21.16
2018-09-11T22:16:59.524Z,21.12
2018-09-11T22:19:30.453Z,21.14
2018-09-11T22:22:01.496Z,21.13
2018-09-11T22:24:32.482Z,21.10
2018-09-11T22:27:03.502Z,21.05
2018-09-11T22:29:35.419Z,21.01
2018-09-11T22:32:06.494Z,21.08
2018-09-11T22:34:37.483Z,21.08
2018-09-11T22:37:08.596Z,21.06
2018-09-11T22:39:39.468Z,20.97
2018-09-11T22:42:10.481Z,20.98
2018-09-11T22:44:41.481Z,20.94
2018-09-11T22:47:12.482Z,20.92
2018-09-11T22:49:43.481Z,20.92
2018-09-11T22:52:14.510Z,20.89
2018-09-11T22:54:45.502Z,20.84
2018-09-11T22:57:16.488Z,20.84
2018-09-11T23:02:31.559Z,20.86
2018-09-11T23:05:02.469Z,20.82
2018-09-11T23:07:33.489Z,20.78
2018-09-11T23:10:04.509Z,20.82
2018-09-11T23:12:35.527Z,20.85
2018-09-11T23:15:06.598Z,20.74
2018-09-11T23:17:37.514Z,20.76
2018-09-11T23:20:08.489Z,20.71
2018-09-11T23:22:39.514Z,20.68
2018-09-11T23:25:10.497Z,20.64
2018-09-11T23:27:41.544Z,20.61
2018-09-11T23:30:12.489Z,20.58
2018-09-11T23:32:43.501Z,20.62
2018-09-11T23:35:14.482Z,20.59
2018-09-11T23:37:45.498Z,20.55
2018-09-11T23:40:16.519Z,20.42
2018-09-11T23:42:47.498Z,20.45
2018-09-11T23:45:18.486Z,20.40
2018-09-11T23:47:49.518Z,20.33
2018-09-11T23:50:20.490Z,20.35
2018-09-11T23:52:51.515Z,20.34
2018-09-11T23:55:22.493Z,20.34
2018-09-11T23:57:53.506Z,20.29
